sensor_id;sensor_type;location;lat;lon;timestamp;temperature;humidity
48551;DHT22;34397;51.176;6.738;2022-07-15T00:01:39;20.30;43.30
48551;DHT22;34397;51.176;6.738;2022-07-15T00:04:11;20.30;43.60
48551;DHT22;34397;51.176;6.738;2022-07-15T00:06:42;20.30;43.70
48551;DHT22;34397;51.176;6.738;2022-07-15T00:09:15;20.20;43.70
48551;DHT22;34397;51.176;6.738;2022-07-15T00:11:47;20.20;43.70
48551;DHT22;34397;51.176;6.738;2022-07-15T00:14:19;20.20;43.80
48551;DHT22;34397;51.176;6.738;2022-07-15T00:16:50;20.20;43.80
48551;DHT22;34397;51.176;6.738;2022-07-15T00:19:22;20.20;43.80
48551;DHT22;34397;51.176;6.738;2022-07-15T00:21:54;20.20;43.80
48551;DHT22;34397;51.176;6.738;2022-07-15T00:24:27;20.20;43.90
48551;DHT22;34397;51.176;6.738;2022-07-15T00:26:59;20.10;43.90
48551;DHT22;34397;51.176;6.738;2022-07-15T00:29:32;20.10;43.80
48551;DHT22;34397;51.176;6.738;2022-07-15T00:32:04;20.00;43.70
48551;DHT22;34397;51.176;6.738;2022-07-15T00:34:36;20.00;44.10
48551;DHT22;34397;51.176;6.738;2022-07-15T00:37:08;20.00;44.10
48551;DHT22;34397;51.176;6.738;2022-07-15T00:39:41;20.00;44.30
48551;DHT22;34397;51.176;6.738;2022-07-15T00:42:13;20.00;44.30
48551;DHT22;34397;51.176;6.738;2022-07-15T00:45:08;19.90;44.20
48551;DHT22;34397;51.176;6.738;2022-07-15T00:47:41;19.90;44.40
48551;DHT22;34397;51.176;6.738;2022-07-15T00:50:13;19.90;44.30
48551;DHT22;34397;51.176;6.738;2022-07-15T00:52:47;19.90;44.50
48551;DHT22;34397;51.176;6.738;2022-07-15T00:55:22;19.80;44.50
48551;DHT22;34397;51.176;6.738;2022-07-15T00:57:55;19.80;44.50
48551;DHT22;34397;51.176;6.738;2022-07-15T01:00:28;19.80;44.60
48551;DHT22;34397;51.176;6.738;2022-07-15T01:03:01;19.70;44.70
48551;DHT22;34397;51.176;6.738;2022-07-15T01:05:33;19.70;44.70
48551;DHT22;34397;51.176;6.738;2022-07-15T01:08:04;19.70;44.80
48551;DHT22;34397;51.176;6.738;2022-07-15T01:10:37;19.70;44.80
48551;DHT22;34397;51.176;6.738;2022-07-15T01:13:10;19.70;44.90
48551;DHT22;34397;51.176;6.738;2022-07-15T01:15:42;19.70;44.90
48551;DHT22;34397;51.176;6.738;2022-07-15T01:18:14;19.70;44.90
48551;DHT22;34397;51.176;6.738;2022-07-15T01:20:47;19.70;44.80
48551;DHT22;34397;51.176;6.738;2022-07-15T01:23:19;19.70;44.70
48551;DHT22;34397;51.176;6.738;2022-07-15T01:25:51;19.70;44.70
48551;DHT22;34397;51.176;6.738;2022-07-15T01:28:23;19.60;44.70
48551;DHT22;34397;51.176;6.738;2022-07-15T01:30:55;19.60;44.70
48551;DHT22;34397;51.176;6.738;2022-07-15T01:33:27;19.60;44.70
48551;DHT22;34397;51.176;6.738;2022-07-15T01:36:02;19.60;44.60
48551;DHT22;34397;51.176;6.738;2022-07-15T01:38:33;19.60;44.80
48551;DHT22;34397;51.176;6.738;2022-07-15T01:41:05;19.50;44.70
48551;DHT22;34397;51.176;6.738;2022-07-15T01:43:37;19.50;44.70
48551;DHT22;34397;51.176;6.738;2022-07-15T01:46:09;19.50;44.90
48551;DHT22;34397;51.176;6.738;2022-07-15T01:48:41;19.50;45.00
48551;DHT22;34397;51.176;6.738;2022-07-15T01:51:31;19.40;45.00
48551;DHT22;34397;51.176;6.738;2022-07-15T01:54:03;19.50;45.00
48551;DHT22;34397;51.176;6.738;2022-07-15T01:56:35;19.50;45.30
48551;DHT22;34397;51.176;6.738;2022-07-15T01:59:07;19.50;45.10
48551;DHT22;34397;51.176;6.738;2022-07-15T02:01:39;19.50;45.20
48551;DHT22;34397;51.176;6.738;2022-07-15T02:04:11;19.50;45.10
48551;DHT22;34397;51.176;6.738;2022-07-15T02:06:44;19.50;45.20
48551;DHT22;34397;51.176;6.738;2022-07-15T02:09:17;19.50;45.20
48551;DHT22;34397;51.176;6.738;2022-07-15T02:11:49;19.50;45.20
48551;DHT22;34397;51.176;6.738;2022-07-15T02:14:21;19.50;45.20
48551;DHT22;34397;51.176;6.738;2022-07-15T02:16:52;19.60;45.20
48551;DHT22;34397;51.176;6.738;2022-07-15T02:19:26;19.60;45.20
48551;DHT22;34397;51.176;6.738;2022-07-15T02:21:59;19.60;45.00
48551;DHT22;34397;51.176;6.738;2022-07-15T02:24:31;19.60;45.00
48551;DHT22;34397;51.176;6.738;2022-07-15T02:27:02;19.50;44.50
48551;DHT22;34397;51.176;6.738;2022-07-15T02:29:34;19.50;44.50
48551;DHT22;34397;51.176;6.738;2022-07-15T02:32:06;19.50;45.00
48551;DHT22;34397;51.176;6.738;2022-07-15T02:34:38;19.40;45.10
48551;DHT22;34397;51.176;6.738;2022-07-15T02:37:11;19.40;45.10
48551;DHT22;34397;51.176;6.738;2022-07-15T02:39:42;19.40;45.20
48551;DHT22;34397;51.176;6.738;2022-07-15T02:42:14;19.40;45.10
48551;DHT22;34397;51.176;6.738;2022-07-15T02:44:46;19.30;45.00
48551;DHT22;34397;51.176;6.738;2022-07-15T02:47:18;19.30;45.10
48551;DHT22;34397;51.176;6.738;2022-07-15T02:49:50;19.30;45.00
48551;DHT22;34397;51.176;6.738;2022-07-15T02:52:23;19.30;45.10
48551;DHT22;34397;51.176;6.738;2022-07-15T02:54:54;19.20;45.00
48551;DHT22;34397;51.176;6.738;2022-07-15T02:57:26;19.20;45.10
48551;DHT22;34397;51.176;6.738;2022-07-15T02:59:58;19.10;45.20
48551;DHT22;34397;51.176;6.738;2022-07-15T03:02:30;19.10;45.50
48551;DHT22;34397;51.176;6.738;2022-07-15T03:05:02;19.10;45.40
48551;DHT22;34397;51.176;6.738;2022-07-15T03:07:35;19.10;45.70
48551;DHT22;34397;51.176;6.738;2022-07-15T03:10:07;19.00;45.60
48551;DHT22;34397;51.176;6.738;2022-07-15T03:12:39;19.00;45.80
48551;DHT22;34397;51.176;6.738;2022-07-15T03:15:11;18.90;45.80
48551;DHT22;34397;51.176;6.738;2022-07-15T03:17:43;18.90;45.90
48551;DHT22;34397;51.176;6.738;2022-07-15T03:20:15;18.90;45.90
48551;DHT22;34397;51.176;6.738;2022-07-15T03:22:48;18.90;45.80
48551;DHT22;34397;51.176;6.738;2022-07-15T03:25:20;18.90;45.80
48551;DHT22;34397;51.176;6.738;2022-07-15T03:27:51;18.90;45.90
48551;DHT22;34397;51.176;6.738;2022-07-15T03:30:23;18.90;46.00
48551;DHT22;34397;51.176;6.738;2022-07-15T03:32:55;18.80;46.00
48551;DHT22;34397;51.176;6.738;2022-07-15T03:35:26;18.80;46.00
48551;DHT22;34397;51.176;6.738;2022-07-15T03:38:00;18.80;45.80
48551;DHT22;34397;51.176;6.738;2022-07-15T03:40:31;18.80;46.00
48551;DHT22;34397;51.176;6.738;2022-07-15T03:43:03;18.80;45.80
48551;DHT22;34397;51.176;6.738;2022-07-15T03:45:35;18.70;45.90
48551;DHT22;34397;51.176;6.738;2022-07-15T03:48:07;18.70;45.90
48551;DHT22;34397;51.176;6.738;2022-07-15T03:50:38;18.60;45.90
48551;DHT22;34397;51.176;6.738;2022-07-15T03:53:11;18.60;46.00
48551;DHT22;34397;51.176;6.738;2022-07-15T03:55:43;18.50;46.00
48551;DHT22;34397;51.176;6.738;2022-07-15T03:58:15;18.50;46.30
48551;DHT22;34397;51.176;6.738;2022-07-15T04:00:47;18.40;46.90
48551;DHT22;34397;51.176;6.738;2022-07-15T04:03:19;18.40;46.50
48551;DHT22;34397;51.176;6.738;2022-07-15T04:05:50;18.30;46.70
48551;DHT22;34397;51.176;6.738;2022-07-15T04:08:24;18.30;46.80
48551;DHT22;34397;51.176;6.738;2022-07-15T04:10:55;18.30;46.80
48551;DHT22;34397;51.176;6.738;2022-07-15T04:13:27;18.30;47.00
48551;DHT22;34397;51.176;6.738;2022-07-15T04:15:59;18.30;47.10
48551;DHT22;34397;51.176;6.738;2022-07-15T04:18:31;18.30;47.10
48551;DHT22;34397;51.176;6.738;2022-07-15T04:21:03;18.20;47.10
48551;DHT22;34397;51.176;6.738;2022-07-15T04:23:36;18.20;47.00
48551;DHT22;34397;51.176;6.738;2022-07-15T04:26:08;18.10;47.40
48551;DHT22;34397;51.176;6.738;2022-07-15T04:28:39;18.10;47.20
48551;DHT22;34397;51.176;6.738;2022-07-15T04:31:11;18.10;47.30
48551;DHT22;34397;51.176;6.738;2022-07-15T04:33:43;18.10;47.70
48551;DHT22;34397;51.176;6.738;2022-07-15T04:36:15;18.00;47.20
48551;DHT22;34397;51.176;6.738;2022-07-15T04:38:48;18.00;47.20
48551;DHT22;34397;51.176;6.738;2022-07-15T04:41:20;18.10;47.30
48551;DHT22;34397;51.176;6.738;2022-07-15T04:43:52;18.00;47.30
48551;DHT22;34397;51.176;6.738;2022-07-15T04:46:23;18.00;47.30
48551;DHT22;34397;51.176;6.738;2022-07-15T04:48:55;18.00;47.30
48551;DHT22;34397;51.176;6.738;2022-07-15T04:51:44;18.10;47.30
48551;DHT22;34397;51.176;6.738;2022-07-15T04:54:17;18.10;47.40
48551;DHT22;34397;51.176;6.738;2022-07-15T04:56:49;18.20;47.30
48551;DHT22;34397;51.176;6.738;2022-07-15T04:59:21;18.20;47.40
48551;DHT22;34397;51.176;6.738;2022-07-15T05:01:52;18.20;47.30
48551;DHT22;34397;51.176;6.738;2022-07-15T05:04:24;18.30;47.20
48551;DHT22;34397;51.176;6.738;2022-07-15T05:06:56;18.30;47.20
48551;DHT22;34397;51.176;6.738;2022-07-15T05:09:29;18.30;47.10
48551;DHT22;34397;51.176;6.738;2022-07-15T05:12:01;18.40;47.30
48551;DHT22;34397;51.176;6.738;2022-07-15T05:14:33;18.40;47.00
48551;DHT22;34397;51.176;6.738;2022-07-15T05:17:05;18.50;47.10
48551;DHT22;34397;51.176;6.738;2022-07-15T05:19:37;18.50;46.80
48551;DHT22;34397;51.176;6.738;2022-07-15T05:22:09;18.50;46.80
48551;DHT22;34397;51.176;6.738;2022-07-15T05:24:42;18.50;46.80
48551;DHT22;34397;51.176;6.738;2022-07-15T05:27:14;18.50;47.00
48551;DHT22;34397;51.176;6.738;2022-07-15T05:29:46;18.60;46.90
48551;DHT22;34397;51.176;6.738;2022-07-15T05:32:18;18.60;46.80
48551;DHT22;34397;51.176;6.738;2022-07-15T05:34:50;18.60;46.80
48551;DHT22;34397;51.176;6.738;2022-07-15T05:37:22;18.70;46.70
48551;DHT22;34397;51.176;6.738;2022-07-15T05:39:55;18.70;46.60
48551;DHT22;34397;51.176;6.738;2022-07-15T05:42:27;18.80;46.60
48551;DHT22;34397;51.176;6.738;2022-07-15T05:44:59;18.80;46.50
48551;DHT22;34397;51.176;6.738;2022-07-15T05:47:31;18.80;46.40
48551;DHT22;34397;51.176;6.738;2022-07-15T05:50:03;18.80;46.30
48551;DHT22;34397;51.176;6.738;2022-07-15T05:52:36;18.80;46.10
48551;DHT22;34397;51.176;6.738;2022-07-15T05:55:09;18.80;46.10
48551;DHT22;34397;51.176;6.738;2022-07-15T05:57:41;18.80;46.20
48551;DHT22;34397;51.176;6.738;2022-07-15T06:00:13;18.80;46.20
48551;DHT22;34397;51.176;6.738;2022-07-15T06:02:45;18.80;46.10
48551;DHT22;34397;51.176;6.738;2022-07-15T06:05:17;18.90;46.10
48551;DHT22;34397;51.176;6.738;2022-07-15T06:07:49;18.90;46.10
48551;DHT22;34397;51.176;6.738;2022-07-15T06:10:22;18.90;46.00
48551;DHT22;34397;51.176;6.738;2022-07-15T06:12:54;18.80;45.80
48551;DHT22;34397;51.176;6.738;2022-07-15T06:15:26;18.80;45.80
48551;DHT22;34397;51.176;6.738;2022-07-15T06:17:58;18.80;46.00
48551;DHT22;34397;51.176;6.738;2022-07-15T06:20:29;18.80;46.10
48551;DHT22;34397;51.176;6.738;2022-07-15T06:23:01;18.70;46.10
48551;DHT22;34397;51.176;6.738;2022-07-15T06:25:34;18.70;46.10
48551;DHT22;34397;51.176;6.738;2022-07-15T06:28:06;18.70;46.70
48551;DHT22;34397;51.176;6.738;2022-07-15T06:30:38;18.60;46.30
48551;DHT22;34397;51.176;6.738;2022-07-15T06:33:10;18.60;46.40
48551;DHT22;34397;51.176;6.738;2022-07-15T06:35:42;18.60;46.40
48551;DHT22;34397;51.176;6.738;2022-07-15T06:38:14;18.60;46.50
48551;DHT22;34397;51.176;6.738;2022-07-15T06:40:47;18.50;46.50
48551;DHT22;34397;51.176;6.738;2022-07-15T06:43:19;18.50;46.40
48551;DHT22;34397;51.176;6.738;2022-07-15T06:45:51;18.50;46.40
48551;DHT22;34397;51.176;6.738;2022-07-15T06:48:22;18.50;46.40
48551;DHT22;34397;51.176;6.738;2022-07-15T06:50:54;18.50;46.40
48551;DHT22;34397;51.176;6.738;2022-07-15T06:53:26;18.50;46.30
48551;DHT22;34397;51.176;6.738;2022-07-15T06:55:59;18.50;46.20
48551;DHT22;34397;51.176;6.738;2022-07-15T06:58:31;18.60;46.20
48551;DHT22;34397;51.176;6.738;2022-07-15T07:01:02;18.60;46.10
48551;DHT22;34397;51.176;6.738;2022-07-15T07:03:34;18.60;46.10
48551;DHT22;34397;51.176;6.738;2022-07-15T07:06:06;18.60;46.00
48551;DHT22;34397;51.176;6.738;2022-07-15T07:08:38;18.60;45.80
48551;DHT22;34397;51.176;6.738;2022-07-15T07:11:11;18.60;45.70
48551;DHT22;34397;51.176;6.738;2022-07-15T07:13:43;18.70;45.60
48551;DHT22;34397;51.176;6.738;2022-07-15T07:16:15;18.70;45.50
48551;DHT22;34397;51.176;6.738;2022-07-15T07:18:47;18.70;45.40
48551;DHT22;34397;51.176;6.738;2022-07-15T07:21:20;18.70;45.30
48551;DHT22;34397;51.176;6.738;2022-07-15T07:23:52;18.70;45.20
48551;DHT22;34397;51.176;6.738;2022-07-15T07:26:25;18.80;44.80
48551;DHT22;34397;51.176;6.738;2022-07-15T07:28:57;18.80;45.00
48551;DHT22;34397;51.176;6.738;2022-07-15T07:31:29;18.80;44.80
48551;DHT22;34397;51.176;6.738;2022-07-15T07:34:01;18.80;44.80
48551;DHT22;34397;51.176;6.738;2022-07-15T07:36:32;18.90;44.80
48551;DHT22;34397;51.176;6.738;2022-07-15T07:39:04;18.90;44.70
48551;DHT22;34397;51.176;6.738;2022-07-15T07:41:37;19.00;44.70
48551;DHT22;34397;51.176;6.738;2022-07-15T07:44:09;19.00;44.60
48551;DHT22;34397;51.176;6.738;2022-07-15T07:46:41;19.10;44.60
48551;DHT22;34397;51.176;6.738;2022-07-15T07:49:13;19.10;44.60
48551;DHT22;34397;51.176;6.738;2022-07-15T07:51:44;19.20;44.50
48551;DHT22;34397;51.176;6.738;2022-07-15T07:54:16;19.30;44.50
48551;DHT22;34397;51.176;6.738;2022-07-15T07:56:49;19.40;44.30
48551;DHT22;34397;51.176;6.738;2022-07-15T07:59:21;19.40;44.00
48551;DHT22;34397;51.176;6.738;2022-07-15T08:01:53;19.50;42.30
48551;DHT22;34397;51.176;6.738;2022-07-15T08:04:25;19.60;43.10
48551;DHT22;34397;51.176;6.738;2022-07-15T08:06:56;19.70;42.90
48551;DHT22;34397;51.176;6.738;2022-07-15T08:09:28;19.80;42.50
48551;DHT22;34397;51.176;6.738;2022-07-15T08:12:01;19.90;41.90
48551;DHT22;34397;51.176;6.738;2022-07-15T08:14:33;20.10;41.70
48551;DHT22;34397;51.176;6.738;2022-07-15T08:17:04;20.20;41.90
48551;DHT22;34397;51.176;6.738;2022-07-15T08:19:36;20.30;41.50
48551;DHT22;34397;51.176;6.738;2022-07-15T08:22:08;20.40;41.50
48551;DHT22;34397;51.176;6.738;2022-07-15T08:24:39;20.40;41.50
48551;DHT22;34397;51.176;6.738;2022-07-15T08:27:13;20.50;41.60
48551;DHT22;34397;51.176;6.738;2022-07-15T08:29:44;20.60;41.50
48551;DHT22;34397;51.176;6.738;2022-07-15T08:32:16;20.60;41.30
48551;DHT22;34397;51.176;6.738;2022-07-15T08:34:48;20.60;41.40
48551;DHT22;34397;51.176;6.738;2022-07-15T08:37:20;20.70;41.30
48551;DHT22;34397;51.176;6.738;2022-07-15T08:39:52;20.80;41.30
48551;DHT22;34397;51.176;6.738;2022-07-15T08:42:25;20.80;41.60
48551;DHT22;34397;51.176;6.738;2022-07-15T08:44:56;20.90;41.20
48551;DHT22;34397;51.176;6.738;2022-07-15T08:47:28;20.90;40.90
48551;DHT22;34397;51.176;6.738;2022-07-15T08:50:03;21.00;41.20
48551;DHT22;34397;51.176;6.738;2022-07-15T08:52:36;21.10;41.10
48551;DHT22;34397;51.176;6.738;2022-07-15T08:55:09;21.10;41.00
48551;DHT22;34397;51.176;6.738;2022-07-15T08:57:45;21.20;40.80
48551;DHT22;34397;51.176;6.738;2022-07-15T09:00:18;21.30;40.40
48551;DHT22;34397;51.176;6.738;2022-07-15T09:02:50;21.30;40.20
48551;DHT22;34397;51.176;6.738;2022-07-15T09:05:22;21.30;39.60
48551;DHT22;34397;51.176;6.738;2022-07-15T09:07:58;21.30;39.90
48551;DHT22;34397;51.176;6.738;2022-07-15T09:10:41;21.30;39.90
48551;DHT22;34397;51.176;6.738;2022-07-15T09:13:24;21.20;38.80
48551;DHT22;34397;51.176;6.738;2022-07-15T09:15:59;21.20;38.90
48551;DHT22;34397;51.176;6.738;2022-07-15T09:18:33;21.10;38.90
48551;DHT22;34397;51.176;6.738;2022-07-15T09:21:13;21.00;39.20
48551;DHT22;34397;51.176;6.738;2022-07-15T09:23:46;20.90;39.30
48551;DHT22;34397;51.176;6.738;2022-07-15T09:26:22;20.90;39.30
48551;DHT22;34397;51.176;6.738;2022-07-15T09:28:56;20.90;38.80
48551;DHT22;34397;51.176;6.738;2022-07-15T09:31:29;20.90;39.60
48551;DHT22;34397;51.176;6.738;2022-07-15T09:34:19;20.90;39.70
48551;DHT22;34397;51.176;6.738;2022-07-15T09:36:52;21.00;39.80
48551;DHT22;34397;51.176;6.738;2022-07-15T09:39:25;21.10;40.10
48551;DHT22;34397;51.176;6.738;2022-07-15T09:42:04;21.20;37.00
48551;DHT22;34397;51.176;6.738;2022-07-15T09:44:38;21.30;39.20
48551;DHT22;34397;51.176;6.738;2022-07-15T09:47:15;21.30;39.00
48551;DHT22;34397;51.176;6.738;2022-07-15T09:49:47;21.30;38.70
48551;DHT22;34397;51.176;6.738;2022-07-15T09:52:19;21.40;37.20
48551;DHT22;34397;51.176;6.738;2022-07-15T09:54:51;21.40;38.70
48551;DHT22;34397;51.176;6.738;2022-07-15T09:57:23;21.50;37.70
48551;DHT22;34397;51.176;6.738;2022-07-15T09:59:56;21.60;37.80
48551;DHT22;34397;51.176;6.738;2022-07-15T10:02:28;21.80;38.50
48551;DHT22;34397;51.176;6.738;2022-07-15T10:05:00;22.00;37.60
48551;DHT22;34397;51.176;6.738;2022-07-15T10:07:32;22.10;33.50
48551;DHT22;34397;51.176;6.738;2022-07-15T10:10:05;22.20;33.00
48551;DHT22;34397;51.176;6.738;2022-07-15T10:12:41;22.20;33.80
48551;DHT22;34397;51.176;6.738;2022-07-15T10:15:21;22.20;34.30
48551;DHT22;34397;51.176;6.738;2022-07-15T10:25:18;22.70;36.00
48551;DHT22;34397;51.176;6.738;2022-07-15T10:28:09;22.70;35.40
48551;DHT22;34397;51.176;6.738;2022-07-15T10:30:44;22.80;34.70
48551;DHT22;34397;51.176;6.738;2022-07-15T10:33:17;23.00;35.00
48551;DHT22;34397;51.176;6.738;2022-07-15T10:35:52;23.00;34.20
48551;DHT22;34397;51.176;6.738;2022-07-15T10:38:28;23.20;33.50
48551;DHT22;34397;51.176;6.738;2022-07-15T10:41:05;23.30;33.10
48551;DHT22;34397;51.176;6.738;2022-07-15T10:43:47;23.30;33.80
48551;DHT22;34397;51.176;6.738;2022-07-15T10:46:23;23.30;33.70
48551;DHT22;34397;51.176;6.738;2022-07-15T10:49:27;23.30;33.70
48551;DHT22;34397;51.176;6.738;2022-07-15T10:52:12;23.20;33.70
48551;DHT22;34397;51.176;6.738;2022-07-15T10:54:47;23.20;34.00
48551;DHT22;34397;51.176;6.738;2022-07-15T10:57:52;23.20;33.70
48551;DHT22;34397;51.176;6.738;2022-07-15T11:00:27;23.30;34.00
48551;DHT22;34397;51.176;6.738;2022-07-15T11:03:06;23.40;33.70
48551;DHT22;34397;51.176;6.738;2022-07-15T11:06:00;23.50;33.30
48551;DHT22;34397;51.176;6.738;2022-07-15T11:08:52;23.60;33.80
48551;DHT22;34397;51.176;6.738;2022-07-15T11:11:48;23.80;33.60
48551;DHT22;34397;51.176;6.738;2022-07-15T11:14:42;24.00;33.30
48551;DHT22;34397;51.176;6.738;2022-07-15T11:17:18;24.10;33.60
48551;DHT22;34397;51.176;6.738;2022-07-15T11:19:55;24.30;33.40
48551;DHT22;34397;51.176;6.738;2022-07-15T11:22:28;24.40;33.30
48551;DHT22;34397;51.176;6.738;2022-07-15T11:25:01;24.60;32.30
48551;DHT22;34397;51.176;6.738;2022-07-15T11:27:34;24.70;32.60
48551;DHT22;34397;51.176;6.738;2022-07-15T11:30:08;25.00;32.50
48551;DHT22;34397;51.176;6.738;2022-07-15T11:32:42;25.10;32.80
48551;DHT22;34397;51.176;6.738;2022-07-15T11:35:15;25.30;32.80
48551;DHT22;34397;51.176;6.738;2022-07-15T11:37:47;25.60;31.70
48551;DHT22;34397;51.176;6.738;2022-07-15T11:40:23;25.90;31.20
48551;DHT22;34397;51.176;6.738;2022-07-15T11:43:15;26.20;32.10
48551;DHT22;34397;51.176;6.738;2022-07-15T11:46:08;26.70;31.20
48551;DHT22;34397;51.176;6.738;2022-07-15T11:48:40;27.00;30.70
48551;DHT22;34397;51.176;6.738;2022-07-15T11:51:12;27.30;30.00
48551;DHT22;34397;51.176;6.738;2022-07-15T11:53:45;27.60;29.60
48551;DHT22;34397;51.176;6.738;2022-07-15T11:56:34;28.00;29.80
48551;DHT22;34397;51.176;6.738;2022-07-15T11:59:18;28.30;29.70
48551;DHT22;34397;51.176;6.738;2022-07-15T12:05:09;28.80;29.70
48551;DHT22;34397;51.176;6.738;2022-07-15T12:07:42;28.80;28.60
48551;DHT22;34397;51.176;6.738;2022-07-15T12:10:36;28.70;29.20
48551;DHT22;34397;51.176;6.738;2022-07-15T12:16:46;28.50;28.90
48551;DHT22;34397;51.176;6.738;2022-07-15T12:19:23;28.40;28.40
48551;DHT22;34397;51.176;6.738;2022-07-15T12:22:04;28.30;28.10
48551;DHT22;34397;51.176;6.738;2022-07-15T12:24:40;28.20;27.70
48551;DHT22;34397;51.176;6.738;2022-07-15T12:27:14;28.00;28.70
48551;DHT22;34397;51.176;6.738;2022-07-15T12:29:46;27.80;28.50
48551;DHT22;34397;51.176;6.738;2022-07-15T12:32:18;27.70;28.40
48551;DHT22;34397;51.176;6.738;2022-07-15T12:34:54;27.60;28.30
48551;DHT22;34397;51.176;6.738;2022-07-15T12:37:46;27.40;28.40
48551;DHT22;34397;51.176;6.738;2022-07-15T12:40:23;27.20;28.60
48551;DHT22;34397;51.176;6.738;2022-07-15T12:42:56;27.20;28.10
48551;DHT22;34397;51.176;6.738;2022-07-15T12:45:34;27.10;28.30
48551;DHT22;34397;51.176;6.738;2022-07-15T12:48:09;27.10;28.80
48551;DHT22;34397;51.176;6.738;2022-07-15T12:51:00;27.00;28.70
48551;DHT22;34397;51.176;6.738;2022-07-15T12:53:37;26.80;28.60
48551;DHT22;34397;51.176;6.738;2022-07-15T12:56:10;26.70;28.80
48551;DHT22;34397;51.176;6.738;2022-07-15T12:58:42;26.50;29.20
48551;DHT22;34397;51.176;6.738;2022-07-15T13:01:14;26.30;29.10
48551;DHT22;34397;51.176;6.738;2022-07-15T13:03:46;26.20;29.50
48551;DHT22;34397;51.176;6.738;2022-07-15T13:06:20;26.10;29.10
48551;DHT22;34397;51.176;6.738;2022-07-15T13:08:52;25.90;29.60
48551;DHT22;34397;51.176;6.738;2022-07-15T13:11:24;25.80;30.00
48551;DHT22;34397;51.176;6.738;2022-07-15T13:13:56;25.70;30.60
48551;DHT22;34397;51.176;6.738;2022-07-15T13:16:28;25.50;30.00
48551;DHT22;34397;51.176;6.738;2022-07-15T13:19:00;25.40;30.50
48551;DHT22;34397;51.176;6.738;2022-07-15T13:21:33;25.30;30.80
48551;DHT22;34397;51.176;6.738;2022-07-15T13:24:05;25.40;31.20
48551;DHT22;34397;51.176;6.738;2022-07-15T13:26:37;25.40;31.60
48551;DHT22;34397;51.176;6.738;2022-07-15T13:29:09;25.60;31.30
48551;DHT22;34397;51.176;6.738;2022-07-15T13:31:41;26.00;31.40
48551;DHT22;34397;51.176;6.738;2022-07-15T13:34:13;26.30;30.20
48551;DHT22;34397;51.176;6.738;2022-07-15T13:36:46;26.60;29.50
48551;DHT22;34397;51.176;6.738;2022-07-15T13:39:18;26.90;29.50
48551;DHT22;34397;51.176;6.738;2022-07-15T13:41:50;27.00;29.10
48551;DHT22;34397;51.176;6.738;2022-07-15T13:44:22;27.00;29.30
48551;DHT22;34397;51.176;6.738;2022-07-15T13:46:53;27.00;29.20
48551;DHT22;34397;51.176;6.738;2022-07-15T13:49:25;26.90;29.30
48551;DHT22;34397;51.176;6.738;2022-07-15T13:52:13;26.70;29.10
48551;DHT22;34397;51.176;6.738;2022-07-15T13:54:45;26.60;29.50
48551;DHT22;34397;51.176;6.738;2022-07-15T13:57:16;26.40;29.40
48551;DHT22;34397;51.176;6.738;2022-07-15T13:59:49;26.30;29.50
48551;DHT22;34397;51.176;6.738;2022-07-15T14:02:20;26.10;29.70
48551;DHT22;34397;51.176;6.738;2022-07-15T14:04:53;26.00;29.70
48551;DHT22;34397;51.176;6.738;2022-07-15T14:07:26;25.90;29.40
48551;DHT22;34397;51.176;6.738;2022-07-15T14:09:58;25.70;29.50
48551;DHT22;34397;51.176;6.738;2022-07-15T14:12:30;25.80;31.00
48551;DHT22;34397;51.176;6.738;2022-07-15T14:15:03;25.90;30.00
48551;DHT22;34397;51.176;6.738;2022-07-15T14:17:36;26.10;29.70
48551;DHT22;34397;51.176;6.738;2022-07-15T14:20:08;26.20;29.60
48551;DHT22;34397;51.176;6.738;2022-07-15T14:22:42;26.30;29.30
48551;DHT22;34397;51.176;6.738;2022-07-15T14:25:14;26.40;29.20
48551;DHT22;34397;51.176;6.738;2022-07-15T14:27:46;26.40;29.10
48551;DHT22;34397;51.176;6.738;2022-07-15T14:30:18;26.30;29.10
48551;DHT22;34397;51.176;6.738;2022-07-15T14:32:50;26.20;29.50
48551;DHT22;34397;51.176;6.738;2022-07-15T14:35:22;26.10;29.30
48551;DHT22;34397;51.176;6.738;2022-07-15T14:37:55;26.00;30.00
48551;DHT22;34397;51.176;6.738;2022-07-15T14:40:27;26.00;30.30
48551;DHT22;34397;51.176;6.738;2022-07-15T14:42:59;26.00;30.10
48551;DHT22;34397;51.176;6.738;2022-07-15T14:45:32;26.00;30.20
48551;DHT22;34397;51.176;6.738;2022-07-15T14:48:04;26.00;30.10
48551;DHT22;34397;51.176;6.738;2022-07-15T14:50:36;26.00;30.10
48551;DHT22;34397;51.176;6.738;2022-07-15T14:53:09;26.00;30.30
48551;DHT22;34397;51.176;6.738;2022-07-15T14:55:41;25.90;30.80
48551;DHT22;34397;51.176;6.738;2022-07-15T14:58:13;25.90;30.90
48551;DHT22;34397;51.176;6.738;2022-07-15T15:00:51;25.90;30.30
48551;DHT22;34397;51.176;6.738;2022-07-15T15:03:23;25.90;30.40
48551;DHT22;34397;51.176;6.738;2022-07-15T15:05:55;25.90;30.50
48551;DHT22;34397;51.176;6.738;2022-07-15T15:08:29;26.00;30.40
48551;DHT22;34397;51.176;6.738;2022-07-15T15:11:01;26.10;30.30
48551;DHT22;34397;51.176;6.738;2022-07-15T15:13:34;26.10;30.10
48551;DHT22;34397;51.176;6.738;2022-07-15T15:16:07;26.00;30.10
48551;DHT22;34397;51.176;6.738;2022-07-15T15:18:38;26.00;30.20
48551;DHT22;34397;51.176;6.738;2022-07-15T15:21:10;25.90;30.00
48551;DHT22;34397;51.176;6.738;2022-07-15T15:23:43;25.80;30.00
48551;DHT22;34397;51.176;6.738;2022-07-15T15:26:15;25.60;30.10
48551;DHT22;34397;51.176;6.738;2022-07-15T15:28:56;25.50;30.30
48551;DHT22;34397;51.176;6.738;2022-07-15T15:31:28;25.40;30.80
48551;DHT22;34397;51.176;6.738;2022-07-15T15:34:00;25.30;30.60
48551;DHT22;34397;51.176;6.738;2022-07-15T15:36:32;25.20;31.00
48551;DHT22;34397;51.176;6.738;2022-07-15T15:39:05;25.10;30.90
48551;DHT22;34397;51.176;6.738;2022-07-15T15:41:37;25.00;31.30
48551;DHT22;34397;51.176;6.738;2022-07-15T15:44:10;24.90;31.30
48551;DHT22;34397;51.176;6.738;2022-07-15T15:46:44;24.80;31.10
48551;DHT22;34397;51.176;6.738;2022-07-15T15:49:15;24.80;30.80
48551;DHT22;34397;51.176;6.738;2022-07-15T15:51:47;24.70;31.50
48551;DHT22;34397;51.176;6.738;2022-07-15T15:54:21;24.80;31.40
48551;DHT22;34397;51.176;6.738;2022-07-15T15:56:53;24.80;31.20
48551;DHT22;34397;51.176;6.738;2022-07-15T15:59:25;24.90;31.80
48551;DHT22;34397;51.176;6.738;2022-07-15T16:01:56;25.00;32.10
48551;DHT22;34397;51.176;6.738;2022-07-15T16:04:29;25.10;32.60
48551;DHT22;34397;51.176;6.738;2022-07-15T16:07:01;25.30;31.90
48551;DHT22;34397;51.176;6.738;2022-07-15T16:09:34;25.40;31.90
48551;DHT22;34397;51.176;6.738;2022-07-15T16:12:06;25.40;31.40
48551;DHT22;34397;51.176;6.738;2022-07-15T16:14:38;25.30;31.70
48551;DHT22;34397;51.176;6.738;2022-07-15T16:17:10;25.30;30.70
48551;DHT22;34397;51.176;6.738;2022-07-15T16:19:44;25.20;31.40
48551;DHT22;34397;51.176;6.738;2022-07-15T16:22:16;25.20;31.30
48551;DHT22;34397;51.176;6.738;2022-07-15T16:25:08;25.10;29.80